sensor_id;sensor_type;location;lat;lon;timestamp;temperature;humidity
21275;DHT22;36472;52.170;20.884;2023-03-14T00:01:26;28.50;37.30
21275;DHT22;36472;52.170;20.884;2023-03-14T00:03:55;28.30;37.00
21275;DHT22;36472;52.170;20.884;2023-03-14T00:06:25;28.30;37.50
21275;DHT22;36472;52.170;20.884;2023-03-14T00:08:54;28.30;37.40
21275;DHT22;36472;52.170;20.884;2023-03-14T00:11:24;28.30;37.30
21275;DHT22;36472;52.170;20.884;2023-03-14T00:13:53;28.10;37.10
21275;DHT22;36472;52.170;20.884;2023-03-14T00:16:27;28.20;37.20
21275;DHT22;36472;52.170;20.884;2023-03-14T00:18:56;28.30;37.20
21275;DHT22;36472;52.170;20.884;2023-03-14T00:21:27;28.40;37.40
21275;DHT22;36472;52.170;20.884;2023-03-14T00:23:55;28.30;37.20
21275;DHT22;36472;52.170;20.884;2023-03-14T00:26:25;28.00;37.50
21275;DHT22;36472;52.170;20.884;2023-03-14T00:28:54;27.70;37.60
21275;DHT22;36472;52.170;20.884;2023-03-14T00:31:23;27.70;37.80
21275;DHT22;36472;52.170;20.884;2023-03-14T00:33:54;27.70;37.80
21275;DHT22;36472;52.170;20.884;2023-03-14T00:36:24;27.80;37.80
21275;DHT22;36472;52.170;20.884;2023-03-14T00:38:54;27.70;37.80
21275;DHT22;36472;52.170;20.884;2023-03-14T00:41:24;27.80;37.80
21275;DHT22;36472;52.170;20.884;2023-03-14T00:43:52;27.90;37.70
21275;DHT22;36472;52.170;20.884;2023-03-14T00:46:21;27.90;37.40
21275;DHT22;36472;52.170;20.884;2023-03-14T00:48:50;28.10;37.40
21275;DHT22;36472;52.170;20.884;2023-03-14T00:51:21;28.00;37.30
21275;DHT22;36472;52.170;20.884;2023-03-14T00:53:50;27.80;37.60
21275;DHT22;36472;52.170;20.884;2023-03-14T00:56:19;27.80;37.50
21275;DHT22;36472;52.170;20.884;2023-03-14T00:58:48;27.90;37.40
21275;DHT22;36472;52.170;20.884;2023-03-14T01:01:18;27.60;37.40
21275;DHT22;36472;52.170;20.884;2023-03-14T01:03:49;27.70;37.50
21275;DHT22;36472;52.170;20.884;2023-03-14T01:06:23;27.70;37.40
21275;DHT22;36472;52.170;20.884;2023-03-14T01:08:53;27.80;37.50
21275;DHT22;36472;52.170;20.884;2023-03-14T01:11:25;27.70;37.50
21275;DHT22;36472;52.170;20.884;2023-03-14T01:13:58;27.90;37.40
21275;DHT22;36472;52.170;20.884;2023-03-14T01:16:30;28.00;37.30
21275;DHT22;36472;52.170;20.884;2023-03-14T01:19:01;28.00;37.20
21275;DHT22;36472;52.170;20.884;2023-03-14T01:21:33;28.10;37.10
21275;DHT22;36472;52.170;20.884;2023-03-14T01:24:05;28.10;37.20
21275;DHT22;36472;52.170;20.884;2023-03-14T01:26:35;28.10;37.10
21275;DHT22;36472;52.170;20.884;2023-03-14T01:29:06;28.20;37.30
21275;DHT22;36472;52.170;20.884;2023-03-14T01:31:38;28.10;37.10
21275;DHT22;36472;52.170;20.884;2023-03-14T01:34:07;28.00;37.10
21275;DHT22;36472;52.170;20.884;2023-03-14T01:36:37;28.00;37.10
21275;DHT22;36472;52.170;20.884;2023-03-14T01:39:06;27.90;37.00
21275;DHT22;36472;52.170;20.884;2023-03-14T01:41:37;28.00;37.30
21275;DHT22;36472;52.170;20.884;2023-03-14T01:44:08;28.00;37.10
21275;DHT22;36472;52.170;20.884;2023-03-14T01:46:39;28.00;37.10
21275;DHT22;36472;52.170;20.884;2023-03-14T01:49:21;28.10;37.10
21275;DHT22;36472;52.170;20.884;2023-03-14T01:52:06;28.10;37.10
21275;DHT22;36472;52.170;20.884;2023-03-14T01:54:40;28.10;36.90
21275;DHT22;36472;52.170;20.884;2023-03-14T01:57:14;28.00;36.80
21275;DHT22;36472;52.170;20.884;2023-03-14T01:59:48;28.00;36.70
21275;DHT22;36472;52.170;20.884;2023-03-14T02:02:22;28.00;36.70
21275;DHT22;36472;52.170;20.884;2023-03-14T02:04:54;27.90;36.80
21275;DHT22;36472;52.170;20.884;2023-03-14T02:07:37;27.90;36.70
21275;DHT22;36472;52.170;20.884;2023-03-14T02:10:19;27.90;36.70
21275;DHT22;36472;52.170;20.884;2023-03-14T02:12:53;27.90;36.70
21275;DHT22;36472;52.170;20.884;2023-03-14T02:15:43;27.80;36.80
21275;DHT22;36472;52.170;20.884;2023-03-14T02:18:33;27.80;36.70
21275;DHT22;36472;52.170;20.884;2023-03-14T02:21:23;27.60;36.50
21275;DHT22;36472;52.170;20.884;2023-03-14T02:24:09;27.50;36.90
21275;DHT22;36472;52.170;20.884;2023-03-14T02:27:12;27.60;36.90
21275;DHT22;36472;52.170;20.884;2023-03-14T02:29:49;27.70;36.80
21275;DHT22;36472;52.170;20.884;2023-03-14T02:32:22;27.60;36.60
21275;DHT22;36472;52.170;20.884;2023-03-14T02:34:54;27.60;36.80
21275;DHT22;36472;52.170;20.884;2023-03-14T02:37:30;27.40;36.80
21275;DHT22;36472;52.170;20.884;2023-03-14T02:40:06;27.30;36.80
21275;DHT22;36472;52.170;20.884;2023-03-14T02:42:40;27.20;36.90
21275;DHT22;36472;52.170;20.884;2023-03-14T02:45:39;27.40;37.10
21275;DHT22;36472;52.170;20.884;2023-03-14T02:48:16;27.20;36.70
21275;DHT22;36472;52.170;20.884;2023-03-14T02:50:52;27.40;36.90
21275;DHT22;36472;52.170;20.884;2023-03-14T02:53:26;27.30;36.90
21275;DHT22;36472;52.170;20.884;2023-03-14T02:56:01;27.40;36.90
21275;DHT22;36472;52.170;20.884;2023-03-14T02:58:34;27.50;36.70
21275;DHT22;36472;52.170;20.884;2023-03-14T03:01:23;27.40;36.60
21275;DHT22;36472;52.170;20.884;2023-03-14T03:03:53;27.50;36.60
21275;DHT22;36472;52.170;20.884;2023-03-14T03:06:22;27.30;36.60
21275;DHT22;36472;52.170;20.884;2023-03-14T03:08:51;27.50;36.70
21275;DHT22;36472;52.170;20.884;2023-03-14T03:11:21;27.50;36.50
21275;DHT22;36472;52.170;20.884;2023-03-14T03:13:51;27.60;36.50
21275;DHT22;36472;52.170;20.884;2023-03-14T03:16:21;27.60;36.30
21275;DHT22;36472;52.170;20.884;2023-03-14T03:18:50;27.50;36.40
21275;DHT22;36472;52.170;20.884;2023-03-14T03:21:21;27.50;36.50
21275;DHT22;36472;52.170;20.884;2023-03-14T03:23:51;27.60;36.30
21275;DHT22;36472;52.170;20.884;2023-03-14T03:26:20;27.40;36.20
21275;DHT22;36472;52.170;20.884;2023-03-14T03:28:52;27.30;36.20
21275;DHT22;36472;52.170;20.884;2023-03-14T03:31:22;27.40;36.30
21275;DHT22;36472;52.170;20.884;2023-03-14T03:33:51;27.20;36.20
21275;DHT22;36472;52.170;20.884;2023-03-14T03:36:21;27.20;36.30
21275;DHT22;36472;52.170;20.884;2023-03-14T03:38:51;27.30;36.30
21275;DHT22;36472;52.170;20.884;2023-03-14T03:41:20;27.40;36.20
21275;DHT22;36472;52.170;20.884;2023-03-14T03:43:51;27.10;36.00
21275;DHT22;36472;52.170;20.884;2023-03-14T03:46:22;27.10;36.30
21275;DHT22;36472;52.170;20.884;2023-03-14T03:48:54;27.20;36.10
21275;DHT22;36472;52.170;20.884;2023-03-14T03:51:26;27.10;36.10
21275;DHT22;36472;52.170;20.884;2023-03-14T03:53:56;26.80;36.00
21275;DHT22;36472;52.170;20.884;2023-03-14T03:56:32;26.90;36.40
21275;DHT22;36472;52.170;20.884;2023-03-14T03:59:02;27.00;36.20
21275;DHT22;36472;52.170;20.884;2023-03-14T04:01:31;27.10;36.00
21275;DHT22;36472;52.170;20.884;2023-03-14T04:04:00;27.10;36.10
21275;DHT22;36472;52.170;20.884;2023-03-14T04:06:30;27.10;36.10
21275;DHT22;36472;52.170;20.884;2023-03-14T04:09:00;27.30;36.00
21275;DHT22;36472;52.170;20.884;2023-03-14T04:11:56;27.40;35.70
21275;DHT22;36472;52.170;20.884;2023-03-14T04:14:36;27.50;35.60
21275;DHT22;36472;52.170;20.884;2023-03-14T04:17:11;27.60;35.60
21275;DHT22;36472;52.170;20.884;2023-03-14T04:19:40;27.60;35.40
21275;DHT22;36472;52.170;20.884;2023-03-14T04:22:10;27.60;35.30
21275;DHT22;36472;52.170;20.884;2023-03-14T04:24:46;27.40;35.50
21275;DHT22;36472;52.170;20.884;2023-03-14T04:27:16;27.50;35.50
21275;DHT22;36472;52.170;20.884;2023-03-14T04:29:47;27.50;35.50
21275;DHT22;36472;52.170;20.884;2023-03-14T04:32:21;27.50;35.40
21275;DHT22;36472;52.170;20.884;2023-03-14T04:34:50;27.50;35.40
21275;DHT22;36472;52.170;20.884;2023-03-14T04:37:20;27.60;36.30
21275;DHT22;36472;52.170;20.884;2023-03-14T04:39:49;27.60;35.30
21275;DHT22;36472;52.170;20.884;2023-03-14T04:42:25;27.60;35.50
21275;DHT22;36472;52.170;20.884;2023-03-14T04:44:55;27.60;35.50
21275;DHT22;36472;52.170;20.884;2023-03-14T04:47:28;27.40;35.50
21275;DHT22;36472;52.170;20.884;2023-03-14T04:49:57;27.40;35.40
21275;DHT22;36472;52.170;20.884;2023-03-14T04:52:27;27.40;35.50
21275;DHT22;36472;52.170;20.884;2023-03-14T04:54:57;27.40;35.60
21275;DHT22;36472;52.170;20.884;2023-03-14T04:57:27;27.40;35.60
21275;DHT22;36472;52.170;20.884;2023-03-14T04:59:58;27.50;35.70
21275;DHT22;36472;52.170;20.884;2023-03-14T05:02:45;27.40;35.80
21275;DHT22;36472;52.170;20.884;2023-03-14T05:05:27;27.40;35.60
21275;DHT22;36472;52.170;20.884;2023-03-14T05:08:11;27.40;35.70
21275;DHT22;36472;52.170;20.884;2023-03-14T05:10:43;27.20;35.40
21275;DHT22;36472;52.170;20.884;2023-03-14T05:13:18;27.20;35.50
21275;DHT22;36472;52.170;20.884;2023-03-14T05:16:14;27.20;35.50
21275;DHT22;36472;52.170;20.884;2023-03-14T05:18:52;27.20;35.50
21275;DHT22;36472;52.170;20.884;2023-03-14T05:21:36;27.30;35.40
21275;DHT22;36472;52.170;20.884;2023-03-14T05:24:24;27.30;35.60
21275;DHT22;36472;52.170;20.884;2023-03-14T05:27:13;27.20;35.40
21275;DHT22;36472;52.170;20.884;2023-03-14T05:29:59;27.30;35.30
21275;DHT22;36472;52.170;20.884;2023-03-14T05:32:59;27.40;35.20
21275;DHT22;36472;52.170;20.884;2023-03-14T05:35:43;27.50;35.30
21275;DHT22;36472;52.170;20.884;2023-03-14T05:38:33;27.60;35.10
21275;DHT22;36472;52.170;20.884;2023-03-14T05:41:28;27.60;35.30
21275;DHT22;36472;52.170;20.884;2023-03-14T05:43:57;27.70;35.10
21275;DHT22;36472;52.170;20.884;2023-03-14T05:46:32;27.70;35.20
21275;DHT22;36472;52.170;20.884;2023-03-14T05:49:25;27.60;35.10
21275;DHT22;36472;52.170;20.884;2023-03-14T05:52:11;27.50;35.20
21275;DHT22;36472;52.170;20.884;2023-03-14T05:55:05;27.30;35.10
21275;DHT22;36472;52.170;20.884;2023-03-14T05:57:55;27.40;35.50
21275;DHT22;36472;52.170;20.884;2023-03-14T06:00:42;27.30;35.30
21275;DHT22;36472;52.170;20.884;2023-03-14T06:03:34;27.40;35.60
21275;DHT22;36472;52.170;20.884;2023-03-14T06:06:07;27.20;35.20
21275;DHT22;36472;52.170;20.884;2023-03-14T06:08:36;27.30;35.60
21275;DHT22;36472;52.170;20.884;2023-03-14T06:11:06;27.50;35.40
21275;DHT22;36472;52.170;20.884;2023-03-14T06:13:36;27.50;35.20
21275;DHT22;36472;52.170;20.884;2023-03-14T06:16:06;27.50;35.20
21275;DHT22;36472;52.170;20.884;2023-03-14T06:18:36;27.50;35.20
21275;DHT22;36472;52.170;20.884;2023-03-14T06:21:09;27.40;35.10
21275;DHT22;36472;52.170;20.884;2023-03-14T06:23:38;27.60;35.30
21275;DHT22;36472;52.170;20.884;2023-03-14T06:26:07;27.70;34.90
21275;DHT22;36472;52.170;20.884;2023-03-14T06:28:38;27.70;35.20
21275;DHT22;36472;52.170;20.884;2023-03-14T06:31:08;27.70;35.10
21275;DHT22;36472;52.170;20.884;2023-03-14T06:33:48;27.80;34.90
21275;DHT22;36472;52.170;20.884;2023-03-14T06:36:19;28.00;34.90
21275;DHT22;36472;52.170;20.884;2023-03-14T06:38:49;28.10;34.70
21275;DHT22;36472;52.170;20.884;2023-03-14T06:41:19;28.10;34.50
21275;DHT22;36472;52.170;20.884;2023-03-14T06:43:51;28.00;34.60
21275;DHT22;36472;52.170;20.884;2023-03-14T06:46:23;27.70;34.60
21275;DHT22;36472;52.170;20.884;2023-03-14T06:48:53;27.80;34.60
21275;DHT22;36472;52.170;20.884;2023-03-14T06:51:24;27.60;35.10
21275;DHT22;36472;52.170;20.884;2023-03-14T06:53:54;27.90;35.00
21275;DHT22;36472;52.170;20.884;2023-03-14T06:56:25;28.10;34.70
21275;DHT22;36472;52.170;20.884;2023-03-14T06:58:56;28.20;34.80
21275;DHT22;36472;52.170;20.884;2023-03-14T07:01:30;28.40;35.40
21275;DHT22;36472;52.170;20.884;2023-03-14T07:04:08;28.40;34.30
21275;DHT22;36472;52.170;20.884;2023-03-14T07:06:43;28.30;34.40
21275;DHT22;36472;52.170;20.884;2023-03-14T07:09:14;28.20;34.50
21275;DHT22;36472;52.170;20.884;2023-03-14T07:11:51;28.40;34.60
21275;DHT22;36472;52.170;20.884;2023-03-14T07:14:20;28.30;34.30
21275;DHT22;36472;52.170;20.884;2023-03-14T07:16:49;28.10;34.60
21275;DHT22;36472;52.170;20.884;2023-03-14T07:19:19;28.40;34.80
21275;DHT22;36472;52.170;20.884;2023-03-14T07:21:49;28.60;34.80
21275;DHT22;36472;52.170;20.884;2023-03-14T07:24:23;28.50;34.40
21275;DHT22;36472;52.170;20.884;2023-03-14T07:26:52;28.60;34.70
21275;DHT22;36472;52.170;20.884;2023-03-14T07:29:26;28.90;35.00
21275;DHT22;36472;52.170;20.884;2023-03-14T07:31:55;29.10;34.90
21275;DHT22;36472;52.170;20.884;2023-03-14T07:34:24;29.30;34.40
21275;DHT22;36472;52.170;20.884;2023-03-14T07:36:56;29.40;34.30
21275;DHT22;36472;52.170;20.884;2023-03-14T07:39:26;29.60;34.20
21275;DHT22;36472;52.170;20.884;2023-03-14T07:42:01;29.70;34.40
21275;DHT22;36472;52.170;20.884;2023-03-14T07:44:48;29.80;34.00
21275;DHT22;36472;52.170;20.884;2023-03-14T07:47:17;29.80;33.90
21275;DHT22;36472;52.170;20.884;2023-03-14T07:49:46;29.80;33.90
21275;DHT22;36472;52.170;20.884;2023-03-14T07:52:16;29.90;33.90
21275;DHT22;36472;52.170;20.884;2023-03-14T07:54:45;30.10;33.90
21275;DHT22;36472;52.170;20.884;2023-03-14T07:57:14;30.20;33.60
21275;DHT22;36472;52.170;20.884;2023-03-14T07:59:44;30.20;33.30
21275;DHT22;36472;52.170;20.884;2023-03-14T08:02:13;30.20;33.70
21275;DHT22;36472;52.170;20.884;2023-03-14T08:04:42;30.50;34.30
21275;DHT22;36472;52.170;20.884;2023-03-14T08:07:11;30.50;33.20
21275;DHT22;36472;52.170;20.884;2023-03-14T08:09:41;30.50;33.40
21275;DHT22;36472;52.170;20.884;2023-03-14T08:12:10;30.80;33.90
21275;DHT22;36472;52.170;20.884;2023-03-14T08:14:40;31.00;34.00
21275;DHT22;36472;52.170;20.884;2023-03-14T08:17:09;31.00;33.10
21275;DHT22;36472;52.170;20.884;2023-03-14T08:19:38;31.20;33.10
21275;DHT22;36472;52.170;20.884;2023-03-14T08:22:09;31.20;32.60
21275;DHT22;36472;52.170;20.884;2023-03-14T08:24:38;31.40;33.30
21275;DHT22;36472;52.170;20.884;2023-03-14T08:27:09;31.30;33.20
21275;DHT22;36472;52.170;20.884;2023-03-14T08:29:38;31.40;33.10
21275;DHT22;36472;52.170;20.884;2023-03-14T08:32:08;31.50;33.10
21275;DHT22;36472;52.170;20.884;2023-03-14T08:34:38;31.50;33.30
21275;DHT22;36472;52.170;20.884;2023-03-14T08:37:06;31.60;33.00
21275;DHT22;36472;52.170;20.884;2023-03-14T08:39:53;31.70;33.00
21275;DHT22;36472;52.170;20.884;2023-03-14T08:42:23;31.70;32.70
21275;DHT22;36472;52.170;20.884;2023-03-14T08:44:53;31.80;33.20
21275;DHT22;36472;52.170;20.884;2023-03-14T08:47:21;32.00;32.70
21275;DHT22;36472;52.170;20.884;2023-03-14T08:49:51;32.00;32.70
21275;DHT22;36472;52.170;20.884;2023-03-14T08:52:20;32.00;32.60
21275;DHT22;36472;52.170;20.884;2023-03-14T08:54:49;32.00;32.70
21275;DHT22;36472;52.170;20.884;2023-03-14T08:57:18;32.00;32.70
21275;DHT22;36472;52.170;20.884;2023-03-14T08:59:50;32.10;32.80
21275;DHT22;36472;52.170;20.884;2023-03-14T09:02:19;32.20;33.20
21275;DHT22;36472;52.170;20.884;2023-03-14T09:04:50;32.40;33.40
21275;DHT22;36472;52.170;20.884;2023-03-14T09:07:19;32.60;32.70
21275;DHT22;36472;52.170;20.884;2023-03-14T09:09:49;32.60;31.80
21275;DHT22;36472;52.170;20.884;2023-03-14T09:12:18;32.60;31.90
21275;DHT22;36472;52.170;20.884;2023-03-14T09:14:47;32.70;32.40
21275;DHT22;36472;52.170;20.884;2023-03-14T09:17:17;32.80;32.00
21275;DHT22;36472;52.170;20.884;2023-03-14T09:19:46;32.80;32.00
21275;DHT22;36472;52.170;20.884;2023-03-14T09:22:15;32.70;31.20
21275;DHT22;36472;52.170;20.884;2023-03-14T09:24:44;32.70;32.00
21275;DHT22;36472;52.170;20.884;2023-03-14T09:27:13;32.70;32.20
21275;DHT22;36472;52.170;20.884;2023-03-14T09:29:42;32.60;31.80
21275;DHT22;36472;52.170;20.884;2023-03-14T09:32:11;32.60;32.00
21275;DHT22;36472;52.170;20.884;2023-03-14T09:34:41;32.60;32.60
21275;DHT22;36472;52.170;20.884;2023-03-14T09:37:10;32.50;31.90
21275;DHT22;36472;52.170;20.884;2023-03-14T09:39:39;32.60;32.30
21275;DHT22;36472;52.170;20.884;2023-03-14T09:42:14;32.70;32.70
21275;DHT22;36472;52.170;20.884;2023-03-14T09:44:53;32.70;32.40
21275;DHT22;36472;52.170;20.884;2023-03-14T09:47:24;32.80;31.20
21275;DHT22;36472;52.170;20.884;2023-03-14T09:49:56;32.80;32.30
21275;DHT22;36472;52.170;20.884;2023-03-14T09:52:29;32.80;31.40
21275;DHT22;36472;52.170;20.884;2023-03-14T09:55:03;32.70;31.40
21275;DHT22;36472;52.170;20.884;2023-03-14T09:57:35;32.70;31.90
21275;DHT22;36472;52.170;20.884;2023-03-14T10:00:10;32.70;31.60
21275;DHT22;36472;52.170;20.884;2023-03-14T10:02:49;32.60;31.80
21275;DHT22;36472;52.170;20.884;2023-03-14T10:05:25;32.80;32.40
21275;DHT22;36472;52.170;20.884;2023-03-14T10:07:55;32.90;31.90
21275;DHT22;36472;52.170;20.884;2023-03-14T10:10:26;33.10;32.10
21275;DHT22;36472;52.170;20.884;2023-03-14T10:12:56;33.10;31.30
21275;DHT22;36472;52.170;20.884;2023-03-14T10:15:30;33.20;31.70
21275;DHT22;36472;52.170;20.884;2023-03-14T10:18:03;33.20;31.20
21275;DHT22;36472;52.170;20.884;2023-03-14T10:20:43;33.20;31.30
21275;DHT22;36472;52.170;20.884;2023-03-14T10:23:24;33.20;31.60
21275;DHT22;36472;52.170;20.884;2023-03-14T10:26:07;33.10;31.60
21275;DHT22;36472;52.170;20.884;2023-03-14T10:28:44;33.10;31.60
21275;DHT22;36472;52.170;20.884;2023-03-14T10:31:14;33.00;31.90
21275;DHT22;36472;52.170;20.884;2023-03-14T10:33:58;33.10;32.30
21275;DHT22;36472;52.170;20.884;2023-03-14T10:36:31;33.10;32.10
21275;DHT22;36472;52.170;20.884;2023-03-14T10:39:22;33.10;32.20
21275;DHT22;36472;52.170;20.884;2023-03-14T10:42:01;33.10;32.10
21275;DHT22;36472;52.170;20.884;2023-03-14T10:44:34;33.10;32.10
21275;DHT22;36472;52.170;20.884;2023-03-14T10:47:04;33.20;32.00
21275;DHT22;36472;52.170;20.884;2023-03-14T10:49:35;33.30;32.40
21275;DHT22;36472;52.170;20.884;2023-03-14T10:52:21;33.40;32.30
21275;DHT22;36472;52.170;20.884;2023-03-14T10:55:11;33.40;31.80
21275;DHT22;36472;52.170;20.884;2023-03-14T10:57:42;33.60;32.10
21275;DHT22;36472;52.170;20.884;2023-03-14T11:00:15;33.60;31.70
21275;DHT22;36472;52.170;20.884;2023-03-14T11:03:00;33.60;31.20
21275;DHT22;36472;52.170;20.884;2023-03-14T11:05:41;33.60;31.20
21275;DHT22;36472;52.170;20.884;2023-03-14T11:08:23;33.60;31.60
21275;DHT22;36472;52.170;20.884;2023-03-14T11:11:06;33.70;31.30
21275;DHT22;36472;52.170;20.884;2023-03-14T11:14:00;33.70;31.30
21275;DHT22;36472;52.170;20.884;2023-03-14T11:16:50;33.70;30.90
21275;DHT22;36472;52.170;20.884;2023-03-14T11:19:32;33.70;31.00
21275;DHT22;36472;52.170;20.884;2023-03-14T11:22:18;33.60;31.80
21275;DHT22;36472;52.170;20.884;2023-03-14T11:25:15;33.60;31.60
21275;DHT22;36472;52.170;20.884;2023-03-14T11:27:55;33.50;31.40
21275;DHT22;36472;52.170;20.884;2023-03-14T11:30:35;33.40;31.30
21275;DHT22;36472;52.170;20.884;2023-03-14T11:33:15;33.30;31.60
21275;DHT22;36472;52.170;20.884;2023-03-14T11:35:51;33.10;31.50
21275;DHT22;36472;52.170;20.884;2023-03-14T11:38:33;33.10;32.10
21275;DHT22;36472;52.170;20.884;2023-03-14T11:41:14;33.00;32.40
21275;DHT22;36472;52.170;20.884;2023-03-14T11:43:48;33.00;32.30
21275;DHT22;36472;52.170;20.884;2023-03-14T11:46:24;33.00;33.00
21275;DHT22;36472;52.170;20.884;2023-03-14T11:49:01;33.00;33.00
21275;DHT22;36472;52.170;20.884;2023-03-14T11:51:37;33.10;33.00
21275;DHT22;36472;52.170;20.884;2023-03-14T11:54:14;33.30;32.80
21275;DHT22;36472;52.170;20.884;2023-03-14T11:56:52;33.40;32.60
21275;DHT22;36472;52.170;20.884;2023-03-14T11:59:28;33.50;32.10
21275;DHT22;36472;52.170;20.884;2023-03-14T12:02:04;33.60;32.20
21275;DHT22;36472;52.170;20.884;2023-03-14T12:04:50;33.60;32.30
21275;DHT22;36472;52.170;20.884;2023-03-14T12:07:52;33.60;32.00
21275;DHT22;36472;52.170;20.884;2023-03-14T12:10:45;33.60;32.60
21275;DHT22;36472;52.170;20.884;2023-03-14T12:13:19;33.60;32.50
21275;DHT22;36472;52.170;20.884;2023-03-14T12:15:55;33.60;32.10
21275;DHT22;36472;52.170;20.884;2023-03-14T12:18:28;33.60;32.60
21275;DHT22;36472;52.170;20.884;2023-03-14T12:21:01;33.60;32.00
21275;DHT22;36472;52.170;20.884;2023-03-14T12:23:36;33.60;32.20
21275;DHT22;36472;52.170;20.884;2023-03-14T12:26:16;33.60;32.60
21275;DHT22;36472;52.170;20.884;2023-03-14T12:28:51;33.50;32.30
21275;DHT22;36472;52.170;20.884;2023-03-14T12:31:42;33.50;32.60
21275;DHT22;36472;52.170;20.884;2023-03-14T12:34:28;33.40;32.60
21275;DHT22;36472;52.170;20.884;2023-03-14T12:37:19;33.30;32.50
21275;DHT22;36472;52.170;20.884;2023-03-14T12:40:19;33.20;32.70
21275;DHT22;36472;52.170;20.884;2023-03-14T12:43:00;33.00;32.70
21275;DHT22;36472;52.170;20.884;2023-03-14T12:45:33;32.90;33.00
21275;DHT22;36472;52.170;20.884;2023-03-14T12:48:11;32.80;33.60
21275;DHT22;36472;52.170;20.884;2023-03-14T12:50:52;32.70;33.90
21275;DHT22;36472;52.170;20.884;2023-03-14T12:53:46;32.60;34.50
21275;DHT22;36472;52.170;20.884;2023-03-14T12:56:56;32.60;34.40
21275;DHT22;36472;52.170;20.884;2023-03-14T12:59:34;32.50;34.50
21275;DHT22;36472;52.170;20.884;2023-03-14T13:02:21;32.40;34.60
21275;DHT22;36472;52.170;20.884;2023-03-14T13:05:02;32.30;35.60
21275;DHT22;36472;52.170;20.884;2023-03-14T13:07:36;32.10;36.40
21275;DHT22;36472;52.170;20.884;2023-03-14T13:10:42;32.00;37.20
21275;DHT22;36472;52.170;20.884;2023-03-14T13:13:19;31.80;37.70
21275;DHT22;36472;52.170;20.884;2023-03-14T13:15:56;31.70;38.70
21275;DHT22;36472;52.170;20.884;2023-03-14T13:18:32;31.60;37.90
21275;DHT22;36472;52.170;20.884;2023-03-14T13:21:07;31.60;38.50
21275;DHT22;36472;52.170;20.884;2023-03-14T13:23:54;31.40;38.40
21275;DHT22;36472;52.170;20.884;2023-03-14T13:26:32;31.40;39.00
21275;DHT22;36472;52.170;20.884;2023-03-14T13:29:16;31.30;39.40
21275;DHT22;36472;52.170;20.884;2023-03-14T13:31:48;31.20;39.10
21275;DHT22;36472;52.170;20.884;2023-03-14T13:34:18;31.20;39.80
21275;DHT22;36472;52.170;20.884;2023-03-14T13:36:51;31.20;40.00
21275;DHT22;36472;52.170;20.884;2023-03-14T13:39:24;31.10;39.80
21275;DHT22;36472;52.170;20.884;2023-03-14T13:42:00;31.10;40.20
21275;DHT22;36472;52.170;20.884;2023-03-14T13:44:33;31.10;40.80
21275;DHT22;36472;52.170;20.884;2023-03-14T13:47:05;31.00;40.90
21275;DHT22;36472;52.170;20.884;2023-03-14T13:49:41;31.00;41.00
21275;DHT22;36472;52.170;20.884;2023-03-14T13:52:28;30.90;40.90
21275;DHT22;36472;52.170;20.884;2023-03-14T13:55:01;31.00;41.50
21275;DHT22;36472;52.170;20.884;2023-03-14T13:57:43;30.90;41.80
21275;DHT22;36472;52.170;20.884;2023-03-14T14:00:19;30.90;42.10
21275;DHT22;36472;52.170;20.884;2023-03-14T14:02:51;30.90;41.90
21275;DHT22;36472;52.170;20.884;2023-03-14T14:05:20;30.90;42.00
21275;DHT22;36472;52.170;20.884;2023-03-14T14:07:50;30.90;41.90
21275;DHT22;36472;52.170;20.884;2023-03-14T14:10:21;30.90;41.90
21275;DHT22;36472;52.170;20.884;2023-03-14T14:12:53;30.90;41.70
21275;DHT22;36472;52.170;20.884;2023-03-14T14:15:28;30.80;42.00
21275;DHT22;36472;52.170;20.884;2023-03-14T14:18:02;30.80;41.90
21275;DHT22;36472;52.170;20.884;2023-03-14T14:20:37;30.70;41.80
21275;DHT22;36472;52.170;20.884;2023-03-14T14:23:11;30.70;41.20
21275;DHT22;36472;52.170;20.884;2023-03-14T14:25:44;30.60;41.60
21275;DHT22;36472;52.170;20.884;2023-03-14T14:28:22;30.60;41.90
21275;DHT22;36472;52.170;20.884;2023-03-14T14:31:18;30.60;42.40
21275;DHT22;36472;52.170;20.884;2023-03-14T14:33:57;30.60;42.90
21275;DHT22;36472;52.170;20.884;2023-03-14T14:36:29;30.50;42.40
21275;DHT22;36472;52.170;20.884;2023-03-14T14:39:03;30.50;42.50
21275;DHT22;36472;52.170;20.884;2023-03-14T14:41:41;30.40;42.40
21275;DHT22;36472;52.170;20.884;2023-03-14T14:44:12;30.40;43.10
21275;DHT22;36472;52.170;20.884;2023-03-14T14:46:45;30.40;43.10
21275;DHT22;36472;52.170;20.884;2023-03-14T14:49:19;30.40;43.20
21275;DHT22;36472;52.170;20.884;2023-03-14T14:51:50;30.40;42.90
21275;DHT22;36472;52.170;20.884;2023-03-14T14:54:31;30.40;42.80
21275;DHT22;36472;52.170;20.884;2023-03-14T14:57:06;30.50;42.90
21275;DHT22;36472;52.170;20.884;2023-03-14T14:59:47;30.50;43.10
21275;DHT22;36472;52.170;20.884;2023-03-14T15:02:30;30.50;42.40
21275;DHT22;36472;52.170;20.884;2023-03-14T15:05:12;30.50;42.50
21275;DHT22;36472;52.170;20.884;2023-03-14T15:07:42;30.50;42.30
21275;DHT22;36472;52.170;20.884;2023-03-14T15:10:12;30.50;42.20
21275;DHT22;36472;52.170;20.884;2023-03-14T15:12:45;30.40;42.10
21275;DHT22;36472;52.170;20.884;2023-03-14T15:15:16;30.40;42.20
21275;DHT22;36472;52.170;20.884;2023-03-14T15:17:46;30.40;42.20
21275;DHT22;36472;52.170;20.884;2023-03-14T15:20:16;30.30;42.10
21275;DHT22;36472;52.170;20.884;2023-03-14T15:22:47;30.30;42.10
21275;DHT22;36472;52.170;20.884;2023-03-14T15:25:16;30.30;41.90
21275;DHT22;36472;52.170;20.884;2023-03-14T15:28:13;30.30;42.00
21275;DHT22;36472;52.170;20.884;2023-03-14T15:30:45;30.30;42.00
21275;DHT22;36472;52.170;20.884;2023-03-14T15:33:15;30.20;41.80
21275;DHT22;36472;52.170;20.884;2023-03-14T15:35:45;30.20;41.90
21275;DHT22;36472;52.170;20.884;2023-03-14T15:38:17;30.10;42.10
21275;DHT22;36472;52.170;20.884;2023-03-14T15:40:48;30.10;41.80
21275;DHT22;36472;52.170;20.884;2023-03-14T15:43:19;29.90;41.80
21275;DHT22;36472;52.170;20.884;2023-03-14T15:45:49;29.90;42.10
21275;DHT22;36472;52.170;20.884;2023-03-14T15:48:19;29.90;42.00
21275;DHT22;36472;52.170;20.884;2023-03-14T15:50:49;29.90;42.00
21275;DHT22;36472;52.170;20.884;2023-03-14T15:53:18;29.90;41.90
21275;DHT22;36472;52.170;20.884;2023-03-14T15:55:47;29.90;41.80
21275;DHT22;36472;52.170;20.884;2023-03-14T15:58:20;29.90;42.00
21275;DHT22;36472;52.170;20.884;2023-03-14T16:00:50;29.90;42.00
21275;DHT22;36472;52.170;20.884;2023-03-14T16:03:19;29.80;42.10